sensor_id;sensor_type;location;lat;lon;timestamp;P1;durP1;ratioP1;P2;durP2;ratioP2
60038;SDS011;45916;52.734;6.544;2022-12-20T00:01:12;11.25;;;8.20;;
60038;SDS011;45916;52.734;6.544;2022-12-20T00:03:42;10.63;;;7.32;;
60038;SDS011;45916;52.734;6.544;2022-12-20T00:06:08;13.68;;;8.10;;
60038;SDS011;45916;52.734;6.544;2022-12-20T00:08:35;10.15;;;7.50;;
60038;SDS011;45916;52.734;6.544;2022-12-20T00:11:02;10.32;;;6.97;;
60038;SDS011;45916;52.734;6.544;2022-12-20T00:13:29;12.93;;;7.57;;
60038;SDS011;45916;52.734;6.544;2022-12-20T00:18:37;10.90;;;7.88;;
60038;SDS011;45916;52.734;6.544;2022-12-20T00:21:05;9.30;;;7.70;;
60038;SDS011;45916;52.734;6.544;2022-12-20T00:23:32;9.05;;;6.18;;
60038;SDS011;45916;52.734;6.544;2022-12-20T00:26:09;10.60;;;7.72;;
60038;SDS011;45916;52.734;6.544;2022-12-20T00:28:36;9.55;;;7.30;;
60038;SDS011;45916;52.734;6.544;2022-12-20T00:31:03;9.23;;;7.22;;
60038;SDS011;45916;52.734;6.544;2022-12-20T00:33:29;9.07;;;6.90;;
60038;SDS011;45916;52.734;6.544;2022-12-20T00:35:55;9.50;;;8.13;;
60038;SDS011;45916;52.734;6.544;2022-12-20T00:38:22;10.82;;;7.03;;
60038;SDS011;45916;52.734;6.544;2022-12-20T00:41:01;8.93;;;6.78;;
60038;SDS011;45916;52.734;6.544;2022-12-20T00:43:38;9.00;;;6.28;;
60038;SDS011;45916;52.734;6.544;2022-12-20T00:46:05;9.82;;;7.05;;
60038;SDS011;45916;52.734;6.544;2022-12-20T00:48:31;7.88;;;5.93;;
60038;SDS011;45916;52.734;6.544;2022-12-20T00:50:58;8.38;;;6.47;;
60038;SDS011;45916;52.734;6.544;2022-12-20T00:53:29;9.60;;;7.18;;
60038;SDS011;45916;52.734;6.544;2022-12-20T00:55:55;9.85;;;6.68;;
60038;SDS011;45916;52.734;6.544;2022-12-20T00:58:21;8.20;;;6.13;;
60038;SDS011;45916;52.734;6.544;2022-12-20T01:00:47;10.57;;;6.55;;
60038;SDS011;45916;52.734;6.544;2022-12-20T01:03:13;9.02;;;6.40;;
60038;SDS011;45916;52.734;6.544;2022-12-20T01:05:39;9.52;;;6.28;;
60038;SDS011;45916;52.734;6.544;2022-12-20T01:08:05;8.18;;;6.38;;
60038;SDS011;45916;52.734;6.544;2022-12-20T01:10:31;8.68;;;6.07;;
60038;SDS011;45916;52.734;6.544;2022-12-20T01:12:57;9.38;;;6.72;;
60038;SDS011;45916;52.734;6.544;2022-12-20T01:15:23;8.27;;;6.22;;
60038;SDS011;45916;52.734;6.544;2022-12-20T01:17:49;10.68;;;7.03;;
60038;SDS011;45916;52.734;6.544;2022-12-20T01:20:15;8.75;;;6.45;;
60038;SDS011;45916;52.734;6.544;2022-12-20T01:22:41;8.98;;;6.38;;
60038;SDS011;45916;52.734;6.544;2022-12-20T01:25:07;9.48;;;6.70;;
60038;SDS011;45916;52.734;6.544;2022-12-20T01:27:33;8.60;;;6.35;;
60038;SDS011;45916;52.734;6.544;2022-12-20T01:29:58;8.65;;;6.15;;
60038;SDS011;45916;52.734;6.544;2022-12-20T01:32:24;9.82;;;6.00;;
60038;SDS011;45916;52.734;6.544;2022-12-20T01:34:50;7.90;;;6.25;;
60038;SDS011;45916;52.734;6.544;2022-12-20T01:37:15;8.27;;;6.50;;
60038;SDS011;45916;52.734;6.544;2022-12-20T01:39:41;8.10;;;6.15;;
60038;SDS011;45916;52.734;6.544;2022-12-20T01:42:08;11.40;;;6.68;;
60038;SDS011;45916;52.734;6.544;2022-12-20T01:47:07;7.47;;;5.57;;
60038;SDS011;45916;52.734;6.544;2022-12-20T01:49:41;8.95;;;6.35;;
60038;SDS011;45916;52.734;6.544;2022-12-20T01:52:12;8.88;;;5.97;;
60038;SDS011;45916;52.734;6.544;2022-12-20T01:54:45;8.95;;;7.10;;
60038;SDS011;45916;52.734;6.544;2022-12-20T01:57:19;7.65;;;6.35;;
60038;SDS011;45916;52.734;6.544;2022-12-20T01:59:51;8.90;;;6.28;;
60038;SDS011;45916;52.734;6.544;2022-12-20T02:02:20;9.23;;;6.22;;
60038;SDS011;45916;52.734;6.544;2022-12-20T02:04:45;8.55;;;6.20;;
60038;SDS011;45916;52.734;6.544;2022-12-20T02:07:12;8.02;;;5.82;;
60038;SDS011;45916;52.734;6.544;2022-12-20T02:09:44;9.52;;;6.15;;
60038;SDS011;45916;52.734;6.544;2022-12-20T02:12:20;9.07;;;6.85;;
60038;SDS011;45916;52.734;6.544;2022-12-20T02:31:39;9.48;;;6.30;;
60038;SDS011;45916;52.734;6.544;2022-12-20T02:34:11;8.90;;;5.95;;
60038;SDS011;45916;52.734;6.544;2022-12-20T02:36:38;8.55;;;6.15;;
60038;SDS011;45916;52.734;6.544;2022-12-20T02:39:03;7.75;;;5.82;;
60038;SDS011;45916;52.734;6.544;2022-12-20T02:41:34;9.48;;;6.55;;
60038;SDS011;45916;52.734;6.544;2022-12-20T02:44:06;9.20;;;6.20;;
60038;SDS011;45916;52.734;6.544;2022-12-20T02:46:55;7.93;;;6.40;;
60038;SDS011;45916;52.734;6.544;2022-12-20T02:49:25;7.72;;;5.80;;
60038;SDS011;45916;52.734;6.544;2022-12-20T02:51:55;8.52;;;6.38;;
60038;SDS011;45916;52.734;6.544;2022-12-20T02:54:23;8.50;;;6.25;;
60038;SDS011;45916;52.734;6.544;2022-12-20T02:56:50;8.68;;;6.22;;
60038;SDS011;45916;52.734;6.544;2022-12-20T03:00:23;9.88;;;6.57;;
60038;SDS011;45916;52.734;6.544;2022-12-20T03:02:32;8.15;;;5.95;;
60038;SDS011;45916;52.734;6.544;2022-12-20T03:05:19;10.93;;;6.70;;
60038;SDS011;45916;52.734;6.544;2022-12-20T03:07:47;8.57;;;6.80;;
60038;SDS011;45916;52.734;6.544;2022-12-20T03:10:14;7.35;;;5.63;;
60038;SDS011;45916;52.734;6.544;2022-12-20T03:12:41;8.93;;;6.45;;
60038;SDS011;45916;52.734;6.544;2022-12-20T03:15:07;8.98;;;6.10;;
60038;SDS011;45916;52.734;6.544;2022-12-20T03:17:33;9.85;;;6.65;;
60038;SDS011;45916;52.734;6.544;2022-12-20T03:19:59;10.68;;;6.55;;
60038;SDS011;45916;52.734;6.544;2022-12-20T03:22:25;11.05;;;6.88;;
60038;SDS011;45916;52.734;6.544;2022-12-20T03:24:51;9.10;;;6.47;;
60038;SDS011;45916;52.734;6.544;2022-12-20T03:27:17;8.95;;;5.97;;
60038;SDS011;45916;52.734;6.544;2022-12-20T03:29:43;9.48;;;6.40;;
60038;SDS011;45916;52.734;6.544;2022-12-20T03:32:10;8.85;;;5.93;;
60038;SDS011;45916;52.734;6.544;2022-12-20T03:34:36;8.35;;;6.03;;
60038;SDS011;45916;52.734;6.544;2022-12-20T03:37:02;9.60;;;7.32;;
60038;SDS011;45916;52.734;6.544;2022-12-20T03:39:28;10.43;;;6.55;;
60038;SDS011;45916;52.734;6.544;2022-12-20T03:41:54;9.55;;;6.78;;
60038;SDS011;45916;52.734;6.544;2022-12-20T03:44:19;9.57;;;6.13;;
60038;SDS011;45916;52.734;6.544;2022-12-20T03:46:45;9.38;;;6.95;;
60038;SDS011;45916;52.734;6.544;2022-12-20T03:49:11;9.82;;;6.90;;
60038;SDS011;45916;52.734;6.544;2022-12-20T03:51:37;9.43;;;5.80;;
60038;SDS011;45916;52.734;6.544;2022-12-20T03:54:02;10.68;;;6.97;;
60038;SDS011;45916;52.734;6.544;2022-12-20T03:56:28;10.00;;;6.85;;
60038;SDS011;45916;52.734;6.544;2022-12-20T03:58:53;11.13;;;7.40;;
60038;SDS011;45916;52.734;6.544;2022-12-20T04:01:24;10.45;;;7.60;;
60038;SDS011;45916;52.734;6.544;2022-12-20T04:03:53;9.88;;;6.63;;
60038;SDS011;45916;52.734;6.544;2022-12-20T04:06:19;8.57;;;5.72;;
60038;SDS011;45916;52.734;6.544;2022-12-20T04:08:46;9.77;;;7.43;;
60038;SDS011;45916;52.734;6.544;2022-12-20T04:11:11;10.50;;;7.55;;
60038;SDS011;45916;52.734;6.544;2022-12-20T04:13:50;8.27;;;6.68;;
60038;SDS011;45916;52.734;6.544;2022-12-20T04:16:18;9.70;;;7.35;;
60038;SDS011;45916;52.734;6.544;2022-12-20T04:18:47;9.57;;;7.40;;
60038;SDS011;45916;52.734;6.544;2022-12-20T04:21:13;10.90;;;7.47;;
60038;SDS011;45916;52.734;6.544;2022-12-20T04:23:41;10.20;;;7.25;;
60038;SDS011;45916;52.734;6.544;2022-12-20T04:26:07;9.98;;;7.50;;
60038;SDS011;45916;52.734;6.544;2022-12-20T04:28:34;9.40;;;7.95;;
60038;SDS011;45916;52.734;6.544;2022-12-20T04:31:01;10.05;;;7.20;;
60038;SDS011;45916;52.734;6.544;2022-12-20T04:33:27;8.35;;;6.60;;
60038;SDS011;45916;52.734;6.544;2022-12-20T04:35:53;10.27;;;7.07;;
60038;SDS011;45916;52.734;6.544;2022-12-20T04:38:19;10.57;;;7.18;;
60038;SDS011;45916;52.734;6.544;2022-12-20T04:40:50;11.23;;;7.47;;
60038;SDS011;45916;52.734;6.544;2022-12-20T04:43:17;9.07;;;6.55;;
60038;SDS011;45916;52.734;6.544;2022-12-20T04:45:44;11.00;;;6.93;;
60038;SDS011;45916;52.734;6.544;2022-12-20T04:50:38;11.40;;;7.50;;
60038;SDS011;45916;52.734;6.544;2022-12-20T04:53:03;8.73;;;6.63;;
60038;SDS011;45916;52.734;6.544;2022-12-20T04:55:47;9.25;;;6.75;;
60038;SDS011;45916;52.734;6.544;2022-12-20T04:58:13;9.13;;;6.60;;
60038;SDS011;45916;52.734;6.544;2022-12-20T05:00:39;9.02;;;6.70;;
60038;SDS011;45916;52.734;6.544;2022-12-20T05:03:04;8.80;;;6.82;;
60038;SDS011;45916;52.734;6.544;2022-12-20T05:05:30;8.18;;;6.05;;
60038;SDS011;45916;52.734;6.544;2022-12-20T05:07:56;8.63;;;5.88;;
60038;SDS011;45916;52.734;6.544;2022-12-20T05:10:21;9.05;;;6.93;;
60038;SDS011;45916;52.734;6.544;2022-12-20T05:12:47;8.85;;;7.18;;
60038;SDS011;45916;52.734;6.544;2022-12-20T05:15:13;10.32;;;6.70;;
60038;SDS011;45916;52.734;6.544;2022-12-20T05:17:39;7.90;;;4.45;;
60038;SDS011;45916;52.734;6.544;2022-12-20T05:20:05;9.70;;;6.63;;
60038;SDS011;45916;52.734;6.544;2022-12-20T05:22:31;10.38;;;6.93;;
60038;SDS011;45916;52.734;6.544;2022-12-20T05:25:16;7.78;;;5.05;;
60038;SDS011;45916;52.734;6.544;2022-12-20T05:28:00;9.43;;;6.47;;
60038;SDS011;45916;52.734;6.544;2022-12-20T05:30:26;8.45;;;6.45;;
60038;SDS011;45916;52.734;6.544;2022-12-20T05:32:52;7.22;;;4.63;;
60038;SDS011;45916;52.734;6.544;2022-12-20T05:35:17;8.38;;;5.78;;
60038;SDS011;45916;52.734;6.544;2022-12-20T05:37:44;8.75;;;5.72;;
60038;SDS011;45916;52.734;6.544;2022-12-20T05:40:09;7.65;;;6.15;;
60038;SDS011;45916;52.734;6.544;2022-12-20T05:42:35;6.80;;;5.00;;
60038;SDS011;45916;52.734;6.544;2022-12-20T05:45:01;9.35;;;5.28;;
60038;SDS011;45916;52.734;6.544;2022-12-20T05:47:27;7.93;;;5.57;;
60038;SDS011;45916;52.734;6.544;2022-12-20T05:49:57;9.48;;;6.28;;
60038;SDS011;45916;52.734;6.544;2022-12-20T05:52:28;9.13;;;6.10;;
60038;SDS011;45916;52.734;6.544;2022-12-20T05:54:54;8.27;;;6.10;;
60038;SDS011;45916;52.734;6.544;2022-12-20T05:57:20;8.50;;;4.75;;
60038;SDS011;45916;52.734;6.544;2022-12-20T05:59:46;8.23;;;6.05;;
60038;SDS011;45916;52.734;6.544;2022-12-20T06:02:12;8.18;;;5.80;;
60038;SDS011;45916;52.734;6.544;2022-12-20T06:04:38;6.72;;;5.05;;
60038;SDS011;45916;52.734;6.544;2022-12-20T06:07:04;8.27;;;5.30;;
60038;SDS011;45916;52.734;6.544;2022-12-20T06:09:33;9.13;;;5.20;;
60038;SDS011;45916;52.734;6.544;2022-12-20T06:11:58;7.00;;;4.97;;
60038;SDS011;45916;52.734;6.544;2022-12-20T06:14:25;9.07;;;6.00;;
60038;SDS011;45916;52.734;6.544;2022-12-20T06:16:51;8.48;;;5.47;;
60038;SDS011;45916;52.734;6.544;2022-12-20T06:19:17;9.85;;;6.43;;
60038;SDS011;45916;52.734;6.544;2022-12-20T06:21:43;9.40;;;5.88;;
60038;SDS011;45916;52.734;6.544;2022-12-20T06:24:09;7.40;;;6.10;;
60038;SDS011;45916;52.734;6.544;2022-12-20T06:26:35;8.00;;;6.35;;
60038;SDS011;45916;52.734;6.544;2022-12-20T06:29:04;9.43;;;6.13;;
60038;SDS011;45916;52.734;6.544;2022-12-20T06:31:34;7.72;;;5.60;;
60038;SDS011;45916;52.734;6.544;2022-12-20T06:34:00;10.70;;;6.50;;
60038;SDS011;45916;52.734;6.544;2022-12-20T06:36:25;9.20;;;5.70;;
60038;SDS011;45916;52.734;6.544;2022-12-20T06:38:51;9.57;;;6.45;;
60038;SDS011;45916;52.734;6.544;2022-12-20T06:41:17;8.30;;;6.68;;
60038;SDS011;45916;52.734;6.544;2022-12-20T06:43:43;10.80;;;6.97;;
60038;SDS011;45916;52.734;6.544;2022-12-20T06:46:09;9.35;;;7.65;;
60038;SDS011;45916;52.734;6.544;2022-12-20T06:48:35;9.65;;;7.28;;
60038;SDS011;45916;52.734;6.544;2022-12-20T06:51:00;8.45;;;6.45;;
60038;SDS011;45916;52.734;6.544;2022-12-20T06:53:26;10.05;;;6.88;;
60038;SDS011;45916;52.734;6.544;2022-12-20T06:55:52;9.38;;;6.63;;
60038;SDS011;45916;52.734;6.544;2022-12-20T06:58:18;10.77;;;6.72;;
60038;SDS011;45916;52.734;6.544;2022-12-20T07:00:44;10.10;;;8.20;;
60038;SDS011;45916;52.734;6.544;2022-12-20T07:03:09;10.55;;;6.85;;
60038;SDS011;45916;52.734;6.544;2022-12-20T07:05:35;9.65;;;6.57;;
60038;SDS011;45916;52.734;6.544;2022-12-20T07:08:01;11.68;;;6.88;;
60038;SDS011;45916;52.734;6.544;2022-12-20T07:10:28;8.25;;;6.82;;
60038;SDS011;45916;52.734;6.544;2022-12-20T07:12:54;8.63;;;6.82;;
60038;SDS011;45916;52.734;6.544;2022-12-20T07:15:20;10.10;;;7.90;;
60038;SDS011;45916;52.734;6.544;2022-12-20T07:17:46;11.90;;;7.95;;
60038;SDS011;45916;52.734;6.544;2022-12-20T07:20:12;9.60;;;7.40;;
60038;SDS011;45916;52.734;6.544;2022-12-20T07:22:38;9.77;;;7.22;;
60038;SDS011;45916;52.734;6.544;2022-12-20T07:25:04;9.82;;;8.07;;
60038;SDS011;45916;52.734;6.544;2022-12-20T07:27:30;9.23;;;7.13;;
60038;SDS011;45916;52.734;6.544;2022-12-20T07:29:55;11.77;;;8.20;;
60038;SDS011;45916;52.734;6.544;2022-12-20T07:32:21;9.65;;;7.50;;
60038;SDS011;45916;52.734;6.544;2022-12-20T07:34:47;12.45;;;8.38;;
60038;SDS011;45916;52.734;6.544;2022-12-20T07:37:12;9.55;;;7.57;;
60038;SDS011;45916;52.734;6.544;2022-12-20T07:39:38;9.90;;;7.70;;
60038;SDS011;45916;52.734;6.544;2022-12-20T07:42:04;9.48;;;7.93;;
60038;SDS011;45916;52.734;6.544;2022-12-20T07:44:29;9.93;;;6.75;;
60038;SDS011;45916;52.734;6.544;2022-12-20T07:46:55;10.20;;;7.53;;
60038;SDS011;45916;52.734;6.544;2022-12-20T07:49:21;11.60;;;8.63;;
60038;SDS011;45916;52.734;6.544;2022-12-20T07:51:47;12.05;;;7.97;;
60038;SDS011;45916;52.734;6.544;2022-12-20T07:56:48;10.05;;;6.85;;
60038;SDS011;45916;52.734;6.544;2022-12-20T07:59:20;9.63;;;7.00;;
60038;SDS011;45916;52.734;6.544;2022-12-20T08:01:49;9.50;;;7.10;;
60038;SDS011;45916;52.734;6.544;2022-12-20T08:04:19;11.45;;;7.53;;
60038;SDS011;45916;52.734;6.544;2022-12-20T08:06:48;9.30;;;6.38;;
60038;SDS011;45916;52.734;6.544;2022-12-20T08:09:16;10.90;;;7.38;;
60038;SDS011;45916;52.734;6.544;2022-12-20T08:11:43;8.55;;;6.90;;
60038;SDS011;45916;52.734;6.544;2022-12-20T08:14:12;9.85;;;7.05;;
60038;SDS011;45916;52.734;6.544;2022-12-20T08:16:38;9.23;;;6.45;;
60038;SDS011;45916;52.734;6.544;2022-12-20T08:19:04;8.45;;;6.15;;
60038;SDS011;45916;52.734;6.544;2022-12-20T08:21:29;9.30;;;6.45;;
60038;SDS011;45916;52.734;6.544;2022-12-20T08:23:55;9.55;;;6.95;;
60038;SDS011;45916;52.734;6.544;2022-12-20T08:26:21;11.45;;;7.22;;
60038;SDS011;45916;52.734;6.544;2022-12-20T08:28:47;10.88;;;6.95;;
60038;SDS011;45916;52.734;6.544;2022-12-20T08:31:12;8.07;;;6.35;;
60038;SDS011;45916;52.734;6.544;2022-12-20T08:33:38;8.68;;;6.90;;
60038;SDS011;45916;52.734;6.544;2022-12-20T08:36:06;9.90;;;7.30;;
60038;SDS011;45916;52.734;6.544;2022-12-20T08:38:36;8.82;;;6.38;;
60038;SDS011;45916;52.734;6.544;2022-12-20T08:41:06;8.52;;;5.82;;
60038;SDS011;45916;52.734;6.544;2022-12-20T08:43:35;9.48;;;7.20;;
60038;SDS011;45916;52.734;6.544;2022-12-20T08:46:01;8.20;;;6.10;;
60038;SDS011;45916;52.734;6.544;2022-12-20T08:48:27;9.13;;;6.32;;
60038;SDS011;45916;52.734;6.544;2022-12-20T08:50:57;8.90;;;5.50;;
60038;SDS011;45916;52.734;6.544;2022-12-20T08:53:25;7.32;;;5.60;;
60038;SDS011;45916;52.734;6.544;2022-12-20T08:55:51;8.93;;;6.47;;
60038;SDS011;45916;52.734;6.544;2022-12-20T08:58:17;9.70;;;5.75;;
60038;SDS011;45916;52.734;6.544;2022-12-20T09:00:43;8.85;;;6.40;;
60038;SDS011;45916;52.734;6.544;2022-12-20T09:03:08;9.98;;;6.10;;
60038;SDS011;45916;52.734;6.544;2022-12-20T09:05:35;8.85;;;6.13;;
60038;SDS011;45916;52.734;6.544;2022-12-20T09:08:07;10.10;;;6.57;;
60038;SDS011;45916;52.734;6.544;2022-12-20T09:10:32;9.93;;;6.05;;
60038;SDS011;45916;52.734;6.544;2022-12-20T09:12:58;8.88;;;5.97;;
60038;SDS011;45916;52.734;6.544;2022-12-20T09:15:24;8.65;;;6.35;;
60038;SDS011;45916;52.734;6.544;2022-12-20T09:17:51;9.35;;;5.85;;
60038;SDS011;45916;52.734;6.544;2022-12-20T09:20:17;8.75;;;5.88;;
60038;SDS011;45916;52.734;6.544;2022-12-20T09:22:43;9.00;;;5.85;;
60038;SDS011;45916;52.734;6.544;2022-12-20T09:25:08;7.72;;;5.95;;
60038;SDS011;45916;52.734;6.544;2022-12-20T09:27:34;7.80;;;5.82;;
60038;SDS011;45916;52.734;6.544;2022-12-20T09:30:00;9.18;;;6.38;;
60038;SDS011;45916;52.734;6.544;2022-12-20T09:32:25;8.38;;;6.10;;
60038;SDS011;45916;52.734;6.544;2022-12-20T09:34:51;8.85;;;5.93;;
60038;SDS011;45916;52.734;6.544;2022-12-20T09:37:16;9.88;;;5.82;;
60038;SDS011;45916;52.734;6.544;2022-12-20T09:39:42;7.38;;;5.95;;
60038;SDS011;45916;52.734;6.544;2022-12-20T09:42:08;7.70;;;5.57;;
60038;SDS011;45916;52.734;6.544;2022-12-20T09:44:35;8.60;;;6.47;;
60038;SDS011;45916;52.734;6.544;2022-12-20T09:47:05;7.80;;;5.93;;
60038;SDS011;45916;52.734;6.544;2022-12-20T09:49:39;8.80;;;6.25;;
60038;SDS011;45916;52.734;6.544;2022-12-20T09:57:50;7.00;;;5.43;;
60038;SDS011;45916;52.734;6.544;2022-12-20T10:00:44;8.27;;;5.15;;
60038;SDS011;45916;52.734;6.544;2022-12-20T10:03:22;8.25;;;5.90;;
60038;SDS011;45916;52.734;6.544;2022-12-20T10:09:10;8.95;;;6.10;;
60038;SDS011;45916;52.734;6.544;2022-12-20T10:17:16;9.90;;;6.18;;
60038;SDS011;45916;52.734;6.544;2022-12-20T10:22:45;9.80;;;6.45;;
60038;SDS011;45916;52.734;6.544;2022-12-20T10:25:23;9.93;;;6.28;;
60038;SDS011;45916;52.734;6.544;2022-12-20T10:27:54;9.50;;;6.80;;
60038;SDS011;45916;52.734;6.544;2022-12-20T10:30:22;8.82;;;5.63;;
60038;SDS011;45916;52.734;6.544;2022-12-20T10:32:51;8.90;;;5.30;;
60038;SDS011;45916;52.734;6.544;2022-12-20T10:38:09;9.05;;;6.80;;
60038;SDS011;45916;52.734;6.544;2022-12-20T10:40:58;8.70;;;6.57;;
60038;SDS011;45916;52.734;6.544;2022-12-20T10:43:26;8.85;;;6.25;;
60038;SDS011;45916;52.734;6.544;2022-12-20T10:45:59;8.50;;;6.03;;
60038;SDS011;45916;52.734;6.544;2022-12-20T10:51:00;10.18;;;6.97;;
60038;SDS011;45916;52.734;6.544;2022-12-20T10:53:28;9.73;;;5.97;;
60038;SDS011;45916;52.734;6.544;2022-12-20T10:58:40;9.77;;;6.60;;
60038;SDS011;45916;52.734;6.544;2022-12-20T11:01:13;9.00;;;5.75;;
60038;SDS011;45916;52.734;6.544;2022-12-20T11:03:50;10.73;;;6.40;;
60038;SDS011;45916;52.734;6.544;2022-12-20T11:06:25;7.93;;;5.38;;
60038;SDS011;45916;52.734;6.544;2022-12-20T11:14:42;8.30;;;6.00;;
60038;SDS011;45916;52.734;6.544;2022-12-20T11:19:57;8.65;;;6.78;;
60038;SDS011;45916;52.734;6.544;2022-12-20T11:22:31;9.15;;;5.43;;
60038;SDS011;45916;52.734;6.544;2022-12-20T11:30:20;10.43;;;6.18;;
60038;SDS011;45916;52.734;6.544;2022-12-20T11:38:27;8.63;;;6.63;;
60038;SDS011;45916;52.734;6.544;2022-12-20T11:41:07;7.75;;;6.05;;
60038;SDS011;45916;52.734;6.544;2022-12-20T11:46:55;10.18;;;6.32;;
60038;SDS011;45916;52.734;6.544;2022-12-20T11:49:55;11.20;;;6.43;;
60038;SDS011;45916;52.734;6.544;2022-12-20T11:52:45;9.15;;;6.22;;
60038;SDS011;45916;52.734;6.544;2022-12-20T12:01:03;9.10;;;6.00;;
60038;SDS011;45916;52.734;6.544;2022-12-20T12:03:37;9.57;;;6.85;;
60038;SDS011;45916;52.734;6.544;2022-12-20T12:06:10;7.72;;;6.38;;
60038;SDS011;45916;52.734;6.544;2022-12-20T12:08:52;9.88;;;6.38;;
60038;SDS011;45916;52.734;6.544;2022-12-20T12:11:27;9.57;;;6.35;;
60038;SDS011;45916;52.734;6.544;2022-12-20T12:13:56;10.45;;;6.75;;
60038;SDS011;45916;52.734;6.544;2022-12-20T12:16:44;10.57;;;6.13;;
60038;SDS011;45916;52.734;6.544;2022-12-20T12:19:15;8.52;;;5.13;;
60038;SDS011;45916;52.734;6.544;2022-12-20T12:21:52;8.52;;;7.07;;
60038;SDS011;45916;52.734;6.544;2022-12-20T12:27:00;8.68;;;6.47;;
60038;SDS011;45916;52.734;6.544;2022-12-20T12:29:27;9.60;;;7.75;;
60038;SDS011;45916;52.734;6.544;2022-12-20T12:40:42;9.20;;;7.18;;
60038;SDS011;45916;52.734;6.544;2022-12-20T12:46:11;9.65;;;7.78;;
60038;SDS011;45916;52.734;6.544;2022-12-20T12:51:49;8.85;;;7.78;;
60038;SDS011;45916;52.734;6.544;2022-12-20T12:54:23;13.38;;;8.77;;
60038;SDS011;45916;52.734;6.544;2022-12-20T12:57:02;10.90;;;8.57;;
60038;SDS011;45916;52.734;6.544;2022-12-20T13:04:30;11.15;;;9.43;;
60038;SDS011;45916;52.734;6.544;2022-12-20T13:15:02;11.88;;;9.63;;
60038;SDS011;45916;52.734;6.544;2022-12-20T13:20:17;10.43;;;9.13;;
60038;SDS011;45916;52.734;6.544;2022-12-20T13:25:31;12.32;;;10.43;;
60038;SDS011;45916;52.734;6.544;2022-12-20T13:41:27;12.38;;;10.70;;
60038;SDS011;45916;52.734;6.544;2022-12-20T13:44:27;13.43;;;10.43;;
60038;SDS011;45916;52.734;6.544;2022-12-20T13:49:49;11.93;;;10.68;;
60038;SDS011;45916;52.734;6.544;2022-12-20T13:52:21;12.27;;;10.45;;
60038;SDS011;45916;52.734;6.544;2022-12-20T13:54:52;13.18;;;10.90;;
60038;SDS011;45916;52.734;6.544;2022-12-20T14:00:13;12.40;;;11.15;;
60038;SDS011;45916;52.734;6.544;2022-12-20T14:02:43;13.15;;;11.75;;
60038;SDS011;45916;52.734;6.544;2022-12-20T14:05:14;13.80;;;11.18;;
60038;SDS011;45916;52.734;6.544;2022-12-20T14:08:01;13.27;;;11.52;;
60038;SDS011;45916;52.734;6.544;2022-12-20T14:10:34;14.70;;;10.82;;
60038;SDS011;45916;52.734;6.544;2022-12-20T14:13:00;13.90;;;11.38;;
60038;SDS011;45916;52.734;6.544;2022-12-20T14:17:54;13.00;;;11.15;;
60038;SDS011;45916;52.734;6.544;2022-12-20T14:20:22;14.32;;;12.82;;
60038;SDS011;45916;52.734;6.544;2022-12-20T14:22:54;13.38;;;11.98;;
60038;SDS011;45916;52.734;6.544;2022-12-20T14:25:45;15.60;;;14.07;;
60038;SDS011;45916;52.734;6.544;2022-12-20T14:28:23;17.77;;;14.57;;
60038;SDS011;45916;52.734;6.544;2022-12-20T14:30:50;15.50;;;13.88;;
60038;SDS011;45916;52.734;6.544;2022-12-20T14:33:35;15.75;;;13.43;;
60038;SDS011;45916;52.734;6.544;2022-12-20T14:38:41;16.23;;;14.63;;
60038;SDS011;45916;52.734;6.544;2022-12-20T14:41:53;16.20;;;14.45;;
60038;SDS011;45916;52.734;6.544;2022-12-20T14:44:19;14.77;;;13.27;;
60038;SDS011;45916;52.734;6.544;2022-12-20T14:46:53;16.42;;;14.90;;
60038;SDS011;45916;52.734;6.544;2022-12-20T14:52:14;17.48;;;15.68;;
60038;SDS011;45916;52.734;6.544;2022-12-20T14:54:45;16.63;;;14.35;;
60038;SDS011;45916;52.734;6.544;2022-12-20T14:57:23;17.55;;;15.80;;
60038;SDS011;45916;52.734;6.544;2022-12-20T14:59:58;18.77;;;15.40;;
60038;SDS011;45916;52.734;6.544;2022-12-20T15:07:49;17.92;;;16.08;;
60038;SDS011;45916;52.734;6.544;2022-12-20T15:10:14;17.52;;;15.75;;
60038;SDS011;45916;52.734;6.544;2022-12-20T15:12:41;18.52;;;16.42;;
60038;SDS011;45916;52.734;6.544;2022-12-20T15:15:10;18.73;;;16.88;;
60038;SDS011;45916;52.734;6.544;2022-12-20T15:17:38;16.63;;;14.85;;
60038;SDS011;45916;52.734;6.544;2022-12-20T15:20:04;16.05;;;14.35;;
60038;SDS011;45916;52.734;6.544;2022-12-20T15:24:58;18.13;;;15.98;;
60038;SDS011;45916;52.734;6.544;2022-12-20T15:27:24;18.58;;;16.30;;
60038;SDS011;45916;52.734;6.544;2022-12-20T15:29:49;17.35;;;15.60;;
60038;SDS011;45916;52.734;6.544;2022-12-20T15:32:22;16.90;;;15.10;;
60038;SDS011;45916;52.734;6.544;2022-12-20T15:34:53;17.20;;;15.35;;
60038;SDS011;45916;52.734;6.544;2022-12-20T15:37:19;18.77;;;16.98;;
60038;SDS011;45916;52.734;6.544;2022-12-20T15:39:45;18.77;;;16.90;;
60038;SDS011;45916;52.734;6.544;2022-12-20T15:42:15;19.98;;;17.95;;
60038;SDS011;45916;52.734;6.544;2022-12-20T15:44:42;21.13;;;18.70;;
60038;SDS011;45916;52.734;6.544;2022-12-20T15:47:11;19.98;;;17.98;;
60038;SDS011;45916;52.734;6.544;2022-12-20T15:49:37;19.45;;;17.45;;
60038;SDS011;45916;52.734;6.544;2022-12-20T15:52:03;20.70;;;18.80;;
60038;SDS011;45916;52.734;6.544;2022-12-20T15:54:31;18.85;;;16.90;;
60038;SDS011;45916;52.734;6.544;2022-12-20T15:57:00;18.70;;;16.80;;
60038;SDS011;45916;52.734;6.544;2022-12-20T15:59:28;18.73;;;16.80;;
60038;SDS011;45916;52.734;6.544;2022-12-20T16:01:57;18.17;;;16.27;;
60038;SDS011;45916;52.734;6.544;2022-12-20T16:06:49;18.27;;;16.38;;
60038;SDS011;45916;52.734;6.544;2022-12-20T16:09:17;19.67;;;17.58;;
60038;SDS011;45916;52.734;6.544;2022-12-20T16:11:43;18.60;;;16.70;;
60038;SDS011;45916;52.734;6.544;2022-12-20T16:14:13;20.40;;;18.30;;
60038;SDS011;45916;52.734;6.544;2022-12-20T16:16:41;20.92;;;18.88;;
60038;SDS011;45916;52.734;6.544;2022-12-20T16:19:08;20.52;;;18.63;;
60038;SDS011;45916;52.734;6.544;2022-12-20T16:21:34;21.80;;;19.50;;
60038;SDS011;45916;52.734;6.544;2022-12-20T16:24:21;20.48;;;18.48;;
60038;SDS011;45916;52.734;6.544;2022-12-20T16:26:47;22.02;;;19.83;;
60038;SDS011;45916;52.734;6.544;2022-12-20T16:29:13;22.15;;;19.38;;
60038;SDS011;45916;52.734;6.544;2022-12-20T16:31:39;21.40;;;19.10;;
60038;SDS011;45916;52.734;6.544;2022-12-20T16:34:09;22.13;;;20.02;;
60038;SDS011;45916;52.734;6.544;2022-12-20T16:36:37;21.48;;;19.20;;
60038;SDS011;45916;52.734;6.544;2022-12-20T16:39:03;22.63;;;19.85;;
60038;SDS011;45916;52.734;6.544;2022-12-20T16:41:29;23.45;;;21.02;;
60038;SDS011;45916;52.734;6.544;2022-12-20T16:43:58;24.50;;;21.48;;
60038;SDS011;45916;52.734;6.544;2022-12-20T16:46:27;23.30;;;20.92;;
60038;SDS011;45916;52.734;6.544;2022-12-20T16:48:54;22.90;;;20.50;;
60038;SDS011;45916;52.734;6.544;2022-12-20T16:53:49;24.60;;;22.20;;
60038;SDS011;45916;52.734;6.544;2022-12-20T16:56:22;23.80;;;21.33;;
60038;SDS011;45916;52.734;6.544;2022-12-20T16:58:48;23.95;;;21.45;;
60038;SDS011;45916;52.734;6.544;2022-12-20T17:01:22;23.92;;;21.38;;
60038;SDS011;45916;52.734;6.544;2022-12-20T17:03:50;26.65;;;22.58;;
60038;SDS011;45916;52.734;6.544;2022-12-20T17:06:17;25.30;;;22.67;;
60038;SDS011;45916;52.734;6.544;2022-12-20T17:08:44;26.10;;;22.77;;
60038;SDS011;45916;52.734;6.544;2022-12-20T17:13:47;27.73;;;22.38;;
60038;SDS011;45916;52.734;6.544;2022-12-20T17:16:14;25.38;;;22.38;;
60038;SDS011;45916;52.734;6.544;2022-12-20T17:18:42;26.02;;;22.75;;
60038;SDS011;45916;52.734;6.544;2022-12-20T17:23:45;26.48;;;23.27;;
60038;SDS011;45916;52.734;6.544;2022-12-20T17:26:17;26.63;;;23.80;;
60038;SDS011;45916;52.734;6.544;2022-12-20T17:28:48;26.70;;;23.50;;
60038;SDS011;45916;52.734;6.544;2022-12-20T17:33:54;26.27;;;23.25;;